Afton, MI

12:47 AM EDT on September 03, 2014 (GMT -0400)
Rainy River | Change Station
CLOSE
Current Station
Personal Weather Station
Location: Onaway, MI
Elevation: 673 ft
Nearby Weather Stations

Elev 673 ft 45.43 °N, 84.20 °W | Updated 8 minutes ago

Clear
Clear
55.4 °F
Feels Like 55.4 °F
N
0.0
Wind Variable Wind from SW

Today
High -- | Low -- °F
--% Chance of Precip.
Yesterday
High -- | Low -- °F
Precip. -- in
7:01 AM 8:11 PM
First Quarter, 58% visible
Pressure 29.88 in
Visibility 10.0 miles
Clouds Clear
Dew Point 54 °F
Humidity 96%
Rainfall 0.00 in
Snow Depth Not available.
UV 0 out of 12
Pollen 8.60 out of 12
Ozone Good
PM2.5 Good
Flu Activity Not available.
METAR KSLH 030437Z AUTO 00000KT 10SM CLR 13/13 A2988 RMK AO2 T01320132

More Conditions Fewer Conditions

Pressure 29.88 in
Visibility 10.0 miles
Clouds Clear
Dew Point 54 °F
Humidity 96%
Rainfall 0.00 in
Snow Depth Not available.
UV 0 out of 12
Pollen 8.60 out of 12
Ozone Good
PM2.5 Good
Flu Activity Not available.
METAR KSLH 030437Z AUTO 00000KT 10SM CLR 13/13 A2988 RMK AO2 T01320132

More Conditions Fewer Conditions

Nowcast | as of 12:00 am EDT on September 3, 2014

At 1 am...mostly clear. Temperature 59. Southwest winds 5 mph. At 3 am...mostly clear. Temperature 58. Southwest winds 6 mph. At 5 am...mostly clear. Temperature 57. Southwest winds 6 mph. At 7 am...mostly clear. Temperature 57. Southwest winds 7 mph.

×

10-Day Weather Forecast

Almanac

Astronomy

Sep. 03, 2014 Rise Set
Actual Time 7:01 AM EDT 8:11 PM EDT
Civil Twilight 6:31 AM EDT 8:41 PM EDT
Nautical Twilight 5:54 AM EDT 9:18 PM EDT
Astronomical Twilight 5:16 AM EDT 9:56 PM EDT
Moon 4:02 PM EDT 12:46 AM EDT
Length of Visible Light 14h 10m
Length of Day
13h 09m
Tomorrow will be 3m 5s shorter.
First Quarter, 58% of the Moon is Illuminated
Today
First Quarter
Sep 8
Full
Sep 15
Last Quarter
Sep 24
New
Oct 1
First Quarter

Today's Extremes

State Highs State Lows

Community

WunderPhotos

Upload Photos

1,749,875 photos uploaded!

Nearby

Air Quality

  Air Quality AQ Index Pollutant
Yesterday Good
OZONE
Yesterday Good
PM2.5
Current Good
OZONE
Current Good
PM2.5
Tuesday Good
OZONE
Tuesday Good
PM2.5
Wednesday Good
OZONE
Wednesday Good
PM2.5
Thursday Good
OZONE
Thursday Good
PM2.5
Friday Good
OZONE
Friday Good
PM2.5
Saturday Good
OZONE
Saturday Good
PM2.5
Sunday Good
OZONE
Sunday Good
PM2.5

Snow Depth

Station Depth Elevation
No new snow has been reported.

Earthquake Activity

City Distance Mag. Time & Date
No recent earthquake activity has been reported nearby.
Minimum magnitude displayed is 2.5.

Coastal Water Temperatures

Place Temperature
Mackinaw City, MI 66.0 °F
De Tour Village, MI 60.1 °F
Alpena, MI 63.0 °F

Nearby Weather Stations